createdAt,value
2022-12-18T00:02:04.829Z,100.00
2022-12-18T00:04:34.619Z,100.00
2022-12-18T00:07:02.107Z,100.00
2022-12-18T00:09:39.736Z,100.00
2022-12-18T00:14:43.656Z,100.00
2022-12-18T00:17:10.798Z,100.00
2022-12-18T00:19:38.208Z,100.00
2022-12-18T00:22:06.355Z,100.00
2022-12-18T00:24:39.831Z,100.00
2022-12-18T00:27:07.308Z,100.00
2022-12-18T00:29:34.770Z,99.73
2022-12-18T00:32:02.237Z,99.61
2022-12-18T00:34:29.543Z,99.25
2022-12-18T00:36:57.139Z,99.15
2022-12-18T00:39:24.580Z,98.92
2022-12-18T00:42:10.657Z,98.55
2022-12-18T00:44:37.809Z,97.99
2022-12-18T00:47:05.378Z,97.86
2022-12-18T00:49:32.957Z,97.57
2022-12-18T00:52:00.421Z,97.20
2022-12-18T00:54:28.891Z,97.58
2022-12-18T00:56:57.312Z,97.67
2022-12-18T00:59:24.789Z,97.43
2022-12-18T01:01:52.443Z,97.70
2022-12-18T01:04:19.553Z,97.43
2022-12-18T01:06:47.261Z,97.07
2022-12-18T01:09:14.711Z,97.01
2022-12-18T01:11:42.089Z,96.88
2022-12-18T01:14:09.683Z,96.53
2022-12-18T01:16:37.003Z,96.31
2022-12-18T01:19:04.392Z,96.12
2022-12-18T01:21:31.922Z,95.67
2022-12-18T01:23:59.362Z,95.62
2022-12-18T01:26:28.660Z,95.65
2022-12-18T01:28:57.591Z,95.54
2022-12-18T01:31:32.377Z,95.98
2022-12-18T01:34:02.885Z,96.32
2022-12-18T01:36:33.458Z,96.94
2022-12-18T01:39:03.117Z,97.73
2022-12-18T01:41:52.209Z,98.16
2022-12-18T01:44:54.478Z,98.06
2022-12-18T01:47:48.978Z,97.92
2022-12-18T01:50:19.023Z,97.81
2022-12-18T01:52:55.327Z,97.45
2022-12-18T01:55:29.188Z,96.53
2022-12-18T01:57:59.237Z,96.44
2022-12-18T02:00:28.058Z,96.67
2022-12-18T02:02:56.979Z,97.58
2022-12-18T02:05:42.517Z,97.54
2022-12-18T02:08:33.037Z,97.34
2022-12-18T02:11:24.125Z,96.73
2022-12-18T02:14:06.542Z,95.99
2022-12-18T02:16:56.630Z,96.52
2022-12-18T02:19:45.812Z,97.28
2022-12-18T02:22:22.599Z,97.94
2022-12-18T02:25:10.907Z,98.21
2022-12-18T02:27:41.896Z,98.11
2022-12-18T02:30:09.867Z,97.57
2022-12-18T02:32:42.382Z,97.20
2022-12-18T02:35:15.063Z,97.02
2022-12-18T02:37:45.618Z,97.02
2022-12-18T02:40:15.486Z,96.86
2022-12-18T02:42:43.065Z,97.18
2022-12-18T02:45:11.005Z,97.48
2022-12-18T02:47:41.843Z,98.07
2022-12-18T02:50:28.418Z,98.45
2022-12-18T02:53:23.487Z,97.83
2022-12-18T02:56:16.314Z,97.54
2022-12-18T02:59:08.518Z,97.33
2022-12-18T03:02:00.819Z,97.81
2022-12-18T03:04:34.038Z,97.81
2022-12-18T03:07:06.498Z,98.10
2022-12-18T03:09:41.223Z,98.70
2022-12-18T03:12:38.099Z,98.63
2022-12-18T03:15:20.849Z,98.46
2022-12-18T03:17:58.136Z,98.41
2022-12-18T03:20:28.848Z,98.82
2022-12-18T03:23:03.750Z,98.82
2022-12-18T03:25:32.859Z,98.71
2022-12-18T03:28:02.824Z,98.76
2022-12-18T03:30:32.626Z,99.05
2022-12-18T03:33:14.728Z,99.20
2022-12-18T03:35:44.497Z,99.07
2022-12-18T03:38:12.323Z,99.26
2022-12-18T03:41:04.141Z,98.82
2022-12-18T03:43:49.531Z,98.17
2022-12-18T03:46:32.082Z,97.29
2022-12-18T03:49:16.350Z,96.66
2022-12-18T03:52:10.455Z,96.90
2022-12-18T03:54:39.720Z,96.82
2022-12-18T03:57:14.119Z,96.79
2022-12-18T03:59:42.987Z,96.03
2022-12-18T04:02:10.841Z,96.23
2022-12-18T04:04:40.939Z,96.04
2022-12-18T04:07:09.038Z,95.97
2022-12-18T04:09:39.776Z,95.45
2022-12-18T04:12:07.685Z,95.19
2022-12-18T04:14:36.830Z,95.22
2022-12-18T04:17:04.807Z,95.42
2022-12-18T04:19:32.033Z,95.50
2022-12-18T04:22:00.418Z,95.52
2022-12-18T04:24:28.211Z,95.50
2022-12-18T04:26:55.519Z,95.32
2022-12-18T04:29:29.521Z,95.62
2022-12-18T04:31:56.977Z,96.00
2022-12-18T04:34:24.405Z,96.30
2022-12-18T04:36:52.330Z,96.10
2022-12-18T04:39:19.947Z,95.34
2022-12-18T04:41:47.307Z,94.60
2022-12-18T04:44:15.242Z,94.49
2022-12-18T04:46:42.804Z,94.76
2022-12-18T04:49:12.272Z,95.25
2022-12-18T04:51:40.207Z,95.49
2022-12-18T04:54:07.711Z,95.63
2022-12-18T04:56:35.162Z,95.39
2022-12-18T04:59:02.619Z,95.28
2022-12-18T05:01:34.486Z,95.03
2022-12-18T05:04:03.190Z,94.83
2022-12-18T05:06:30.718Z,94.86
2022-12-18T05:08:59.182Z,94.88
2022-12-18T05:11:26.741Z,94.96
2022-12-18T05:13:55.187Z,95.09
2022-12-18T05:16:23.624Z,95.06
2022-12-18T05:18:52.075Z,94.70
2022-12-18T05:21:19.542Z,94.68
2022-12-18T05:23:47.572Z,94.13
2022-12-18T05:26:19.827Z,93.72
2022-12-18T05:28:48.088Z,92.81
2022-12-18T05:31:15.773Z,92.95
2022-12-18T05:33:43.317Z,93.37
2022-12-18T05:36:12.636Z,93.73
2022-12-18T05:38:40.851Z,94.20
2022-12-18T05:41:08.780Z,94.00
2022-12-18T05:43:38.052Z,93.11
2022-12-18T05:46:07.277Z,93.06
2022-12-18T05:48:35.467Z,93.81
2022-12-18T05:51:10.876Z,93.98
2022-12-18T05:53:39.019Z,94.16
2022-12-18T05:56:10.059Z,94.31
2022-12-18T05:58:39.018Z,94.37
2022-12-18T06:01:19.394Z,94.52
2022-12-18T06:03:46.920Z,94.46
2022-12-18T06:06:16.929Z,94.60
2022-12-18T06:08:46.693Z,94.77
2022-12-18T06:11:18.728Z,94.06
2022-12-18T06:13:48.187Z,93.40
2022-12-18T06:16:15.287Z,93.19
2022-12-18T06:18:42.762Z,92.91
2022-12-18T06:21:10.902Z,92.72
2022-12-18T06:23:38.510Z,92.65
2022-12-18T06:26:14.820Z,92.66
2022-12-18T06:28:42.624Z,93.15
2022-12-18T06:31:10.431Z,93.08
2022-12-18T06:33:43.580Z,92.33
2022-12-18T06:36:13.208Z,91.27
2022-12-18T06:38:43.203Z,91.62
2022-12-18T06:41:20.218Z,91.40
2022-12-18T06:43:47.638Z,90.82
2022-12-18T06:46:15.375Z,91.23
2022-12-18T06:48:42.761Z,91.93
2022-12-18T06:51:09.934Z,92.29
2022-12-18T06:53:38.127Z,92.56
2022-12-18T06:56:10.141Z,92.24
2022-12-18T06:58:38.962Z,92.24
2022-12-18T07:01:09.257Z,91.88
2022-12-18T07:03:37.363Z,91.29
2022-12-18T07:06:06.141Z,90.72
2022-12-18T07:08:34.029Z,90.50
2022-12-18T07:11:04.794Z,90.90
2022-12-18T07:13:33.165Z,90.79
2022-12-18T07:16:24.674Z,90.85
2022-12-18T07:18:57.018Z,90.48
2022-12-18T07:21:26.440Z,90.55
2022-12-18T07:23:53.601Z,90.45
2022-12-18T07:26:23.179Z,90.54
2022-12-18T07:28:52.099Z,90.65
2022-12-18T07:31:22.224Z,90.94
2022-12-18T07:33:50.437Z,91.47
2022-12-18T07:36:19.787Z,91.87
2022-12-18T07:38:49.521Z,91.16
2022-12-18T07:41:19.877Z,91.13
2022-12-18T07:43:47.179Z,91.50
2022-12-18T07:46:17.015Z,91.28
2022-12-18T07:48:49.566Z,91.16
2022-12-18T07:51:18.992Z,91.32
2022-12-18T07:53:48.333Z,91.22
2022-12-18T07:56:27.603Z,91.33
2022-12-18T07:58:55.417Z,91.95
2022-12-18T08:01:23.129Z,91.75
2022-12-18T08:03:52.457Z,91.53
2022-12-18T08:06:22.376Z,91.38
2022-12-18T08:08:53.396Z,91.60
2022-12-18T08:11:21.475Z,91.43
2022-12-18T08:13:48.836Z,91.88
2022-12-18T08:16:18.795Z,92.21
2022-12-18T08:18:47.021Z,91.82
2022-12-18T08:21:26.054Z,91.52
2022-12-18T08:23:55.365Z,91.39
2022-12-18T08:26:23.547Z,91.22
2022-12-18T08:28:55.564Z,91.38
2022-12-18T08:31:24.104Z,91.20
2022-12-18T08:33:53.992Z,90.66
2022-12-18T08:36:23.449Z,90.37
2022-12-18T08:38:53.742Z,90.17
2022-12-18T08:41:22.136Z,89.60
2022-12-18T08:44:07.685Z,89.29
2022-12-18T08:46:40.187Z,89.17
2022-12-18T08:49:09.347Z,88.89
2022-12-18T08:51:37.370Z,89.22
2022-12-18T08:54:06.590Z,89.44
2022-12-18T08:56:35.989Z,89.23
2022-12-18T08:59:03.126Z,88.71
2022-12-18T09:01:30.493Z,88.46
2022-12-18T09:03:58.540Z,88.73
2022-12-18T09:06:25.830Z,88.73
2022-12-18T09:08:53.283Z,87.77
2022-12-18T09:11:24.601Z,87.80
2022-12-18T09:13:53.701Z,87.91
2022-12-18T09:16:21.378Z,88.01
2022-12-18T09:18:49.440Z,88.33
2022-12-18T09:21:22.442Z,88.10
2022-12-18T09:23:54.323Z,86.63
2022-12-18T09:26:23.012Z,86.22
2022-12-18T09:28:50.651Z,86.69
2022-12-18T09:31:22.182Z,86.25
2022-12-18T09:33:49.323Z,85.91
2022-12-18T09:36:19.075Z,86.61
2022-12-18T09:38:46.518Z,87.49
2022-12-18T09:41:35.654Z,87.64
2022-12-18T09:44:19.197Z,87.01
2022-12-18T09:46:59.711Z,86.88
2022-12-18T09:49:32.051Z,86.86
2022-12-18T09:52:31.638Z,87.09
2022-12-18T09:55:05.767Z,87.73
2022-12-18T09:57:36.999Z,87.90
2022-12-18T10:00:16.951Z,87.92
2022-12-18T10:02:44.282Z,88.17
2022-12-18T10:05:37.573Z,87.68
2022-12-18T10:08:18.127Z,88.09
2022-12-18T10:10:51.531Z,88.42
2022-12-18T10:13:18.837Z,88.39
2022-12-18T10:15:55.293Z,88.39
2022-12-18T10:18:31.339Z,88.30
2022-12-18T10:21:11.765Z,87.89
2022-12-18T10:24:03.398Z,88.12
2022-12-18T10:26:33.171Z,88.64
2022-12-18T10:29:05.461Z,89.14
2022-12-18T10:31:33.227Z,88.79
2022-12-18T10:34:00.489Z,88.27
2022-12-18T10:36:30.257Z,87.39
2022-12-18T10:39:16.631Z,86.89
2022-12-18T10:41:43.982Z,86.66
2022-12-18T10:44:23.037Z,86.07
2022-12-18T10:47:10.209Z,85.98
2022-12-18T10:49:49.340Z,86.03
2022-12-18T10:52:27.301Z,85.75
2022-12-18T10:55:03.102Z,85.02
2022-12-18T10:57:32.464Z,84.60
2022-12-18T11:00:01.660Z,83.65
2022-12-18T11:02:34.583Z,83.36
2022-12-18T11:05:02.153Z,84.09
2022-12-18T11:07:51.449Z,85.27
2022-12-18T11:10:20.706Z,85.86
2022-12-18T11:12:48.618Z,86.40
2022-12-18T11:15:29.079Z,86.63
2022-12-18T11:17:56.473Z,87.07
2022-12-18T11:20:34.047Z,87.05
2022-12-18T11:23:04.468Z,86.24
2022-12-18T11:25:35.397Z,86.19
2022-12-18T11:28:39.134Z,84.80
2022-12-18T11:31:29.368Z,84.09
2022-12-18T11:34:29.103Z,84.22
2022-12-18T11:37:01.043Z,84.14
2022-12-18T11:39:50.597Z,85.08
2022-12-18T11:42:35.828Z,84.43
2022-12-18T11:45:26.033Z,84.17
2022-12-18T11:48:06.940Z,84.96
2022-12-18T11:50:53.079Z,85.09
2022-12-18T11:53:21.485Z,84.98
2022-12-18T11:55:55.168Z,85.42
2022-12-18T11:58:57.108Z,84.65
2022-12-18T12:01:46.070Z,83.71
2022-12-18T12:04:29.220Z,84.16
2022-12-18T12:07:11.544Z,84.35
2022-12-18T12:09:54.225Z,85.88
2022-12-18T12:12:50.526Z,85.52
2022-12-18T12:15:56.014Z,85.28
2022-12-18T12:19:08.373Z,86.16
2022-12-18T12:21:47.092Z,87.03
2022-12-18T12:24:37.236Z,87.34
2022-12-18T12:27:31.172Z,87.34
2022-12-18T12:30:44.147Z,88.52
2022-12-18T12:33:30.276Z,89.17
2022-12-18T12:36:09.259Z,89.21
2022-12-18T12:38:51.716Z,89.15
2022-12-18T12:41:43.798Z,89.04
2022-12-18T12:44:20.462Z,89.15
2022-12-18T12:46:49.641Z,89.30
2022-12-18T12:49:21.765Z,89.47
2022-12-18T12:52:12.389Z,89.97
2022-12-18T12:54:40.565Z,90.10
2022-12-18T12:57:34.925Z,89.37
2022-12-18T13:00:11.706Z,88.48
2022-12-18T13:02:48.902Z,88.34
2022-12-18T13:05:42.578Z,88.43
2022-12-18T13:08:12.270Z,87.97
2022-12-18T13:10:44.113Z,87.79
2022-12-18T13:13:23.320Z,86.61
2022-12-18T13:16:07.071Z,86.56
2022-12-18T13:18:35.953Z,86.32
2022-12-18T13:21:17.644Z,86.73
2022-12-18T13:23:51.061Z,87.46
2022-12-18T13:26:21.938Z,87.75
2022-12-18T13:28:55.700Z,88.62
2022-12-18T13:31:41.162Z,89.46
2022-12-18T13:34:26.881Z,90.09
2022-12-18T13:36:57.521Z,90.45
2022-12-18T13:42:49.294Z,90.07
2022-12-18T13:45:41.851Z,90.25
2022-12-18T13:48:22.011Z,90.59
2022-12-18T13:51:04.703Z,90.60
2022-12-18T13:53:37.804Z,90.79
2022-12-18T13:56:06.680Z,91.00
2022-12-18T13:58:34.741Z,91.18
2022-12-18T14:01:04.312Z,91.13
2022-12-18T14:03:32.014Z,90.93
2022-12-18T14:06:10.210Z,90.67
2022-12-18T14:08:41.926Z,90.28
2022-12-18T14:11:23.567Z,90.37
2022-12-18T14:13:54.104Z,90.23
2022-12-18T14:16:21.454Z,89.16
2022-12-18T14:19:04.552Z,88.33
2022-12-18T14:21:46.164Z,87.81
2022-12-18T14:24:22.963Z,87.13
2022-12-18T14:26:51.652Z,86.61
2022-12-18T14:29:26.745Z,86.42
2022-12-18T14:32:14.955Z,86.31
2022-12-18T14:34:58.403Z,86.20
2022-12-18T14:37:28.375Z,86.31
2022-12-18T14:40:11.328Z,86.75
2022-12-18T14:42:39.116Z,87.42
2022-12-18T14:45:41.486Z,87.78
2022-12-18T14:48:43.202Z,87.88
2022-12-18T14:51:26.205Z,88.59
2022-12-18T14:54:21.731Z,89.24
2022-12-18T14:57:01.616Z,89.56
2022-12-18T14:59:32.003Z,89.61
2022-12-18T15:02:10.414Z,89.58
2022-12-18T15:04:44.531Z,89.69
2022-12-18T15:07:12.310Z,90.01
2022-12-18T15:09:44.331Z,90.47
2022-12-18T15:12:39.521Z,91.15
2022-12-18T15:15:27.929Z,91.98
2022-12-18T15:18:01.971Z,92.73
2022-12-18T15:20:34.836Z,93.56
2022-12-18T15:23:02.694Z,94.02
2022-12-18T15:25:38.751Z,94.09
2022-12-18T15:28:21.497Z,94.05
2022-12-18T15:31:23.377Z,93.99
2022-12-18T15:33:54.571Z,94.15
2022-12-18T15:36:26.474Z,94.13
2022-12-18T15:39:05.358Z,94.22
2022-12-18T15:41:38.061Z,94.31
2022-12-18T15:44:27.640Z,94.43
2022-12-18T15:46:56.079Z,93.96
2022-12-18T15:49:25.663Z,93.69
2022-12-18T15:52:01.188Z,93.51
2022-12-18T15:54:47.725Z,93.03
2022-12-18T15:57:25.036Z,92.81
2022-12-18T16:00:01.066Z,93.21
2022-12-18T16:02:30.446Z,93.51
2022-12-18T16:05:06.692Z,93.67
2022-12-18T16:07:36.127Z,93.72
2022-12-18T16:10:04.595Z,93.86
2022-12-18T16:12:33.327Z,94.43
2022-12-18T16:15:03.666Z,94.63
2022-12-18T16:17:40.809Z,94.79
2022-12-18T16:20:17.800Z,95.12
2022-12-18T16:22:48.166Z,95.27
2022-12-18T16:25:27.444Z,95.02
2022-12-18T16:27:58.545Z,94.63
2022-12-18T16:30:38.155Z,94.71
2022-12-18T16:33:07.830Z,94.64
2022-12-18T16:35:38.981Z,94.27
2022-12-18T16:38:07.663Z,94.21
2022-12-18T16:40:56.107Z,94.56
2022-12-18T16:43:27.157Z,94.47
2022-12-18T16:45:58.576Z,94.14
2022-12-18T16:48:27.572Z,94.21
2022-12-18T16:51:07.195Z,94.23
2022-12-18T16:53:35.784Z,94.03
2022-12-18T16:56:04.840Z,94.30
2022-12-18T16:58:34.396Z,94.34
2022-12-18T17:01:02.575Z,94.91
2022-12-18T17:03:30.176Z,95.48
2022-12-18T17:06:04.736Z,95.62
2022-12-18T17:08:33.785Z,95.59
2022-12-18T17:11:11.757Z,95.44
2022-12-18T17:13:40.260Z,95.09
2022-12-18T17:16:09.710Z,95.21
2022-12-18T17:18:39.268Z,95.22
2022-12-18T17:21:12.022Z,95.49
2022-12-18T17:23:40.528Z,95.92
2022-12-18T17:26:11.288Z,95.87
2022-12-18T17:28:44.442Z,95.97
2022-12-18T17:31:15.336Z,95.62
2022-12-18T17:33:44.640Z,95.86
2022-12-18T17:36:13.234Z,95.77
2022-12-18T17:38:44.974Z,95.37
2022-12-18T17:41:13.437Z,95.60
2022-12-18T17:44:08.499Z,95.82
2022-12-18T17:46:36.763Z,95.72
2022-12-18T17:49:05.767Z,96.14
2022-12-18T17:51:34.751Z,96.37
2022-12-18T17:54:03.560Z,97.17
2022-12-18T17:56:31.335Z,97.21
2022-12-18T17:59:00.742Z,96.72
2022-12-18T18:01:29.355Z,96.47
2022-12-18T18:03:57.613Z,96.01
2022-12-18T18:06:26.291Z,95.80
2022-12-18T18:08:56.081Z,96.00
2022-12-18T18:11:43.676Z,95.95
2022-12-18T18:14:19.011Z,96.04
2022-12-18T18:16:52.850Z,96.24
2022-12-18T18:19:26.228Z,96.58
2022-12-18T18:21:54.888Z,96.11
2022-12-18T18:24:25.241Z,96.16
2022-12-18T18:26:53.618Z,96.23
2022-12-18T18:29:26.224Z,96.28
2022-12-18T18:31:57.887Z,95.84
2022-12-18T18:34:28.948Z,95.41
2022-12-18T18:36:58.010Z,95.31
2022-12-18T18:39:26.308Z,95.32
2022-12-18T18:41:54.642Z,95.25
2022-12-18T18:44:26.695Z,95.85
2022-12-18T18:47:02.347Z,96.33
2022-12-18T18:49:33.933Z,96.38
2022-12-18T18:52:03.563Z,96.82
2022-12-18T18:54:31.903Z,96.97
2022-12-18T18:57:20.028Z,97.11
2022-12-18T18:59:49.478Z,97.34
2022-12-18T19:02:18.732Z,97.49
2022-12-18T19:04:48.992Z,97.53
2022-12-18T19:07:29.381Z,97.53
2022-12-18T19:10:04.248Z,97.01
2022-12-18T19:12:53.582Z,97.07
2022-12-18T19:15:22.377Z,96.98
2022-12-18T19:17:51.110Z,96.81
2022-12-18T19:20:21.343Z,97.16
2022-12-18T19:22:55.787Z,97.12
2022-12-18T19:25:38.316Z,96.80
2022-12-18T19:28:22.288Z,97.26
2022-12-18T19:30:58.630Z,97.28
2022-12-18T19:33:45.378Z,97.32
2022-12-18T19:36:20.957Z,97.20
2022-12-18T19:38:50.793Z,97.10
2022-12-18T19:41:20.318Z,97.08
2022-12-18T19:43:48.788Z,97.12
2022-12-18T19:46:19.615Z,96.98
2022-12-18T19:48:49.966Z,97.07
2022-12-18T19:51:23.346Z,96.98
2022-12-18T19:53:56.647Z,96.57
2022-12-18T19:56:28.774Z,96.24
2022-12-18T19:58:58.624Z,96.55
2022-12-18T20:01:30.345Z,96.38
2022-12-18T20:03:59.650Z,96.33
2022-12-18T20:06:35.069Z,96.82
2022-12-18T20:09:07.665Z,97.43
2022-12-18T20:11:41.503Z,97.56
2022-12-18T20:14:18.859Z,98.20
2022-12-18T20:16:53.563Z,98.04
2022-12-18T20:19:23.068Z,98.49
2022-12-18T20:21:51.567Z,98.97
2022-12-18T20:24:20.597Z,99.23
2022-12-18T20:26:51.714Z,99.17
2022-12-18T20:29:20.051Z,99.60
2022-12-18T20:31:50.656Z,99.72
2022-12-18T20:34:19.487Z,100.00
2022-12-18T20:36:52.333Z,100.00
2022-12-18T20:39:20.321Z,100.00
2022-12-18T20:41:48.611Z,100.00
2022-12-18T20:44:23.271Z,100.00
2022-12-18T20:47:08.602Z,100.00
2022-12-18T20:49:37.568Z,100.00
2022-12-18T20:52:10.516Z,100.00
2022-12-18T20:54:39.439Z,100.00
2022-12-18T20:57:07.603Z,100.00
2022-12-18T20:59:35.599Z,100.00
2022-12-18T21:02:05.514Z,100.00
2022-12-18T21:04:33.324Z,100.00
2022-12-18T21:07:02.963Z,100.00
2022-12-18T21:09:37.793Z,100.00
2022-12-18T21:12:29.620Z,100.00
2022-12-18T21:15:04.261Z,100.00
2022-12-18T21:17:34.542Z,100.00
2022-12-18T21:20:14.072Z,100.00
2022-12-18T21:22:45.176Z,100.00
2022-12-18T21:25:12.550Z,100.00
2022-12-18T21:27:40.058Z,100.00
2022-12-18T21:30:09.039Z,100.00
2022-12-18T21:32:37.683Z,100.00
2022-12-18T21:35:06.284Z,100.00
2022-12-18T21:37:33.432Z,100.00
2022-12-18T21:40:00.832Z,100.00
2022-12-18T21:42:47.604Z,100.00
2022-12-18T21:45:16.362Z,100.00
2022-12-18T21:47:43.754Z,100.00
2022-12-18T21:50:11.191Z,100.00
2022-12-18T21:52:39.706Z,100.00
2022-12-18T21:55:10.248Z,100.00
2022-12-18T21:57:45.805Z,100.00
2022-12-18T22:00:18.564Z,100.00
2022-12-18T22:02:47.852Z,100.00
2022-12-18T22:05:15.252Z,100.00
2022-12-18T22:07:42.868Z,100.00
2022-12-18T22:10:11.286Z,100.00
2022-12-18T22:12:44.147Z,100.00
2022-12-18T22:15:21.320Z,100.00
2022-12-18T22:17:50.672Z,100.00
2022-12-18T22:20:20.371Z,100.00
2022-12-18T22:22:48.977Z,100.00
2022-12-18T22:25:16.631Z,100.00
2022-12-18T22:28:04.688Z,100.00
2022-12-18T22:30:32.988Z,100.00
2022-12-18T22:33:00.387Z,100.00
2022-12-18T22:35:27.958Z,100.00
2022-12-18T22:37:55.516Z,99.79
2022-12-18T22:40:27.309Z,99.93
2022-12-18T22:42:57.045Z,99.93
2022-12-18T22:45:26.200Z,99.77
2022-12-18T22:47:53.921Z,99.23
2022-12-18T22:50:21.409Z,99.48
2022-12-18T22:52:49.926Z,99.43
2022-12-18T22:55:17.410Z,99.03
2022-12-18T22:57:48.932Z,98.81
2022-12-18T23:00:24.368Z,98.79
2022-12-18T23:02:59.214Z,98.54
2022-12-18T23:05:31.643Z,98.56
2022-12-18T23:07:59.804Z,98.81
2022-12-18T23:10:28.492Z,98.91
2022-12-18T23:12:56.241Z,98.67
2022-12-18T23:15:28.459Z,98.79
2022-12-18T23:17:57.991Z,98.61
2022-12-18T23:20:28.514Z,98.47
2022-12-18T23:23:01.908Z,98.35
2022-12-18T23:25:29.144Z,98.30
2022-12-18T23:27:56.700Z,98.40
2022-12-18T23:30:30.507Z,98.53
2022-12-18T23:33:00.739Z,98.33
2022-12-18T23:35:30.130Z,98.20
2022-12-18T23:37:59.465Z,98.25
2022-12-18T23:40:27.635Z,98.61
2022-12-18T23:42:54.748Z,98.06
2022-12-18T23:45:28.165Z,97.94
2022-12-18T23:47:55.222Z,97.84
2022-12-18T23:50:29.116Z,97.90
2022-12-18T23:53:04.901Z,97.84
2022-12-18T23:55:37.649Z,97.49
2022-12-18T23:58:05.087Z,97.61
